createdAt,value
2023-04-18T00:01:30.544Z,11.68
2023-04-18T00:03:32.061Z,11.45
2023-04-18T00:05:33.633Z,11.82
2023-04-18T00:07:35.577Z,12.05
2023-04-18T00:09:37.218Z,13.25
2023-04-18T00:11:38.750Z,11.75
2023-04-18T00:13:40.569Z,11.35
2023-04-18T00:15:43.799Z,12.95
2023-04-18T00:17:45.266Z,10.25
2023-04-18T00:19:47.031Z,11.43
2023-04-18T00:21:49.456Z,11.23
2023-04-18T00:23:51.694Z,13.27
2023-04-18T00:25:53.226Z,13.43
2023-04-18T00:27:54.640Z,10.70
2023-04-18T00:29:56.034Z,11.57
2023-04-18T00:31:58.041Z,10.50
2023-04-18T00:33:59.490Z,11.07
2023-04-18T00:36:00.895Z,12.90
2023-04-18T00:38:02.421Z,13.40
2023-04-18T00:40:05.482Z,11.32
2023-04-18T00:42:06.894Z,10.65
2023-04-18T00:44:08.340Z,14.77
2023-04-18T00:46:10.902Z,12.60
2023-04-18T00:48:12.373Z,10.02
2023-04-18T00:50:14.984Z,10.43
2023-04-18T00:52:18.425Z,10.57
2023-04-18T00:54:20.199Z,8.52
2023-04-18T00:56:23.683Z,10.93
2023-04-18T00:58:26.235Z,10.40
2023-04-18T01:00:27.681Z,10.27
2023-04-18T01:02:30.498Z,9.57
2023-04-18T01:04:32.602Z,9.70
2023-04-18T01:06:34.722Z,10.23
2023-04-18T01:08:36.518Z,10.90
2023-04-18T01:10:38.024Z,9.23
2023-04-18T01:12:39.588Z,9.73
2023-04-18T01:14:42.990Z,9.27
2023-04-18T01:16:44.375Z,8.45
2023-04-18T01:18:46.273Z,10.32
2023-04-18T01:20:49.733Z,10.32
2023-04-18T01:22:51.758Z,10.82
2023-04-18T01:24:53.184Z,8.90
2023-04-18T01:26:54.570Z,11.82
2023-04-18T01:28:56.064Z,9.90
2023-04-18T01:30:57.466Z,9.18
2023-04-18T01:33:01.483Z,9.52
2023-04-18T01:35:03.774Z,11.30
2023-04-18T01:37:05.223Z,9.48
2023-04-18T01:39:07.171Z,9.60
2023-04-18T01:41:08.642Z,8.90
2023-04-18T01:43:10.021Z,10.45
2023-04-18T01:45:12.290Z,8.60
2023-04-18T01:47:13.730Z,9.90
2023-04-18T01:49:16.148Z,10.23
2023-04-18T01:51:17.561Z,8.82
2023-04-18T01:53:18.951Z,9.25
2023-04-18T01:55:20.516Z,9.65
2023-04-18T01:57:21.932Z,7.53
2023-04-18T01:59:23.338Z,8.20
2023-04-18T02:01:24.822Z,9.10
2023-04-18T02:03:26.534Z,10.07
2023-04-18T02:05:28.101Z,7.45
2023-04-18T02:07:29.633Z,9.45
2023-04-18T02:09:31.066Z,8.15
2023-04-18T02:11:32.526Z,9.32
2023-04-18T02:13:33.970Z,9.00
2023-04-18T02:15:35.711Z,8.70
2023-04-18T02:17:37.857Z,9.43
2023-04-18T02:19:39.360Z,8.23
2023-04-18T02:21:41.871Z,8.00
2023-04-18T02:23:43.262Z,8.88
2023-04-18T02:25:44.689Z,8.07
2023-04-18T02:27:46.078Z,7.88
2023-04-18T02:29:47.506Z,7.88
2023-04-18T02:31:48.969Z,9.45
2023-04-18T02:33:50.389Z,6.43
2023-04-18T02:35:51.803Z,8.52
2023-04-18T02:37:53.297Z,7.40
2023-04-18T02:39:54.746Z,8.55
2023-04-18T02:41:56.161Z,9.88
2023-04-18T02:43:58.857Z,9.73
2023-04-18T02:46:00.349Z,8.85
2023-04-18T02:48:01.869Z,9.05
2023-04-18T02:50:04.062Z,9.23
2023-04-18T02:52:05.503Z,7.75
2023-04-18T02:54:06.912Z,8.73
2023-04-18T02:56:08.422Z,7.50
2023-04-18T02:58:09.950Z,6.82
2023-04-18T03:00:12.062Z,7.50
2023-04-18T03:02:13.591Z,7.20
2023-04-18T03:04:15.126Z,7.53
2023-04-18T03:06:16.742Z,9.52
2023-04-18T03:08:18.204Z,9.73
2023-04-18T03:10:19.613Z,8.45
2023-04-18T03:12:21.080Z,7.95
2023-04-18T03:14:22.467Z,8.43
2023-04-18T03:16:27.159Z,8.85
2023-04-18T03:18:28.687Z,7.25
2023-04-18T03:20:30.111Z,7.65
2023-04-18T03:22:31.858Z,8.23
2023-04-18T03:24:33.242Z,8.13
2023-04-18T03:26:34.682Z,8.63
2023-04-18T03:28:36.191Z,9.15
2023-04-18T03:30:37.616Z,8.35
2023-04-18T03:32:39.113Z,8.93
2023-04-18T03:34:40.715Z,8.57
2023-04-18T03:36:42.233Z,9.05
2023-04-18T03:38:43.861Z,7.90
2023-04-18T03:40:46.210Z,8.18
2023-04-18T03:42:47.590Z,8.32
2023-04-18T03:44:49.031Z,8.50
2023-04-18T03:46:50.644Z,9.00
2023-04-18T03:48:52.079Z,9.32
2023-04-18T03:50:53.473Z,8.52
2023-04-18T03:52:55.015Z,10.10
2023-04-18T03:54:56.454Z,9.48
2023-04-18T03:56:59.319Z,10.88
2023-04-18T03:59:00.827Z,8.48
2023-04-18T04:01:02.327Z,10.00
2023-04-18T04:03:04.012Z,9.98
2023-04-18T04:05:05.818Z,11.23
2023-04-18T04:07:07.286Z,10.05
2023-04-18T04:09:08.719Z,10.80
2023-04-18T04:11:10.141Z,8.25
2023-04-18T04:13:11.558Z,10.30
2023-04-18T04:15:13.034Z,10.00
2023-04-18T04:17:14.459Z,11.43
2023-04-18T04:19:15.943Z,10.23
2023-04-18T04:21:18.441Z,9.25
2023-04-18T04:23:22.609Z,8.32
2023-04-18T04:25:28.417Z,8.63
2023-04-18T04:27:29.885Z,14.32
2023-04-18T04:29:31.604Z,12.85
2023-04-18T04:31:33.123Z,10.65
2023-04-18T04:33:35.561Z,10.70
2023-04-18T04:35:37.047Z,10.25
2023-04-18T04:37:41.076Z,12.43
2023-04-18T04:39:42.466Z,9.70
2023-04-18T04:41:43.846Z,12.20
2023-04-18T04:43:46.591Z,11.48
2023-04-18T04:45:49.444Z,9.73
2023-04-18T04:47:51.017Z,11.80
2023-04-18T04:49:52.430Z,11.65
2023-04-18T04:51:53.890Z,11.23
2023-04-18T04:53:55.509Z,11.60
2023-04-18T04:55:57.937Z,11.43
2023-04-18T04:57:59.370Z,12.07
2023-04-18T05:00:00.748Z,11.57
2023-04-18T05:02:02.351Z,12.18
2023-04-18T05:04:04.198Z,11.00
2023-04-18T05:06:06.028Z,13.23
2023-04-18T05:08:07.507Z,12.50
2023-04-18T05:10:09.425Z,11.50
2023-04-18T05:12:10.847Z,12.27
2023-04-18T05:14:12.915Z,12.50
2023-04-18T05:16:14.757Z,12.18
2023-04-18T05:18:16.318Z,12.45
2023-04-18T05:20:17.752Z,14.23
2023-04-18T05:22:19.208Z,13.15
2023-04-18T05:24:20.780Z,13.00
2023-04-18T05:26:22.597Z,13.65
2023-04-18T05:28:26.284Z,12.75
2023-04-18T05:30:27.756Z,14.88
2023-04-18T05:32:29.253Z,15.40
2023-04-18T05:34:31.701Z,14.32
2023-04-18T05:36:33.196Z,14.55
2023-04-18T05:38:34.688Z,13.95
2023-04-18T05:40:36.208Z,13.38
2023-04-18T05:42:37.673Z,15.10
2023-04-18T05:44:39.090Z,13.65
2023-04-18T05:46:40.715Z,13.57
2023-04-18T05:48:42.198Z,14.15
2023-04-18T05:50:43.561Z,14.68
2023-04-18T05:52:44.961Z,12.30
2023-04-18T05:54:46.404Z,13.75
2023-04-18T05:56:48.233Z,13.32
2023-04-18T05:58:51.257Z,14.80
2023-04-18T06:00:53.316Z,14.68
2023-04-18T06:02:54.879Z,14.02
2023-04-18T06:04:56.934Z,14.23
2023-04-18T06:06:58.936Z,13.57
2023-04-18T06:09:00.429Z,15.07
2023-04-18T06:11:02.009Z,13.77
2023-04-18T06:13:03.450Z,14.13
2023-04-18T06:15:05.851Z,11.85
2023-04-18T06:17:07.382Z,14.85
2023-04-18T06:19:08.793Z,15.75
2023-04-18T06:21:10.288Z,14.75
2023-04-18T06:23:11.712Z,13.63
2023-04-18T06:25:13.165Z,14.95
2023-04-18T06:27:27.909Z,13.27
2023-04-18T06:29:33.168Z,14.35
2023-04-18T06:31:34.644Z,15.75
2023-04-18T06:33:37.566Z,14.60
2023-04-18T06:35:39.104Z,13.63
2023-04-18T06:37:43.973Z,16.05
2023-04-18T06:39:46.002Z,15.23
2023-04-18T06:41:48.791Z,15.65
2023-04-18T06:44:02.894Z,17.25
2023-04-18T06:46:06.013Z,12.98
2023-04-18T06:48:08.972Z,14.82
2023-04-18T06:50:10.755Z,14.75
2023-04-18T06:52:12.191Z,13.25
2023-04-18T06:54:13.901Z,15.68
2023-04-18T06:56:15.772Z,15.85
2023-04-18T06:58:17.424Z,15.15
2023-04-18T07:00:19.023Z,13.95
2023-04-18T07:02:20.451Z,17.38
2023-04-18T07:04:22.074Z,17.92
2023-04-18T07:06:23.654Z,16.63
2023-04-18T07:08:25.163Z,16.33
2023-04-18T07:10:26.589Z,17.45
2023-04-18T07:12:28.075Z,19.88
2023-04-18T07:14:30.142Z,16.92
2023-04-18T07:16:32.775Z,20.17
2023-04-18T07:18:37.874Z,15.65
2023-04-18T07:20:40.301Z,17.05
2023-04-18T07:22:41.810Z,18.23
2023-04-18T07:24:44.030Z,18.55
2023-04-18T07:26:45.692Z,16.95
2023-04-18T07:28:47.115Z,17.48
2023-04-18T07:30:48.680Z,18.45
2023-04-18T07:32:50.464Z,17.10
2023-04-18T07:34:52.753Z,20.20
2023-04-18T07:36:54.218Z,18.75
2023-04-18T07:38:55.635Z,17.65
2023-04-18T07:41:01.578Z,17.92
2023-04-18T07:43:03.374Z,15.95
2023-04-18T07:45:05.382Z,16.33
2023-04-18T07:47:11.244Z,19.23
2023-04-18T07:49:12.990Z,18.05
2023-04-18T07:51:14.767Z,18.60
2023-04-18T07:53:16.924Z,20.23
2023-04-18T07:55:18.663Z,21.63
2023-04-18T07:57:20.690Z,17.00
2023-04-18T07:59:22.395Z,17.65
2023-04-18T08:01:24.790Z,16.95
2023-04-18T08:03:27.754Z,16.15
2023-04-18T08:05:29.567Z,14.23
2023-04-18T08:07:31.051Z,16.58
2023-04-18T08:09:32.519Z,15.90
2023-04-18T08:11:34.512Z,17.55
2023-04-18T08:13:35.917Z,17.80
2023-04-18T08:15:37.302Z,15.30
2023-04-18T08:17:38.993Z,15.63
2023-04-18T08:19:40.539Z,13.95
2023-04-18T08:21:41.940Z,15.88
2023-04-18T08:23:43.337Z,16.63
2023-04-18T08:25:44.813Z,15.68
2023-04-18T08:27:46.236Z,17.25
2023-04-18T08:29:47.628Z,14.82
2023-04-18T08:31:49.085Z,15.48
2023-04-18T08:33:50.648Z,16.10
2023-04-18T08:35:52.133Z,15.93
2023-04-18T08:37:53.559Z,15.38
2023-04-18T08:39:54.986Z,17.25
2023-04-18T08:42:00.509Z,17.63
2023-04-18T08:44:02.072Z,18.17
2023-04-18T08:46:03.569Z,18.90
2023-04-18T08:48:06.177Z,19.73
2023-04-18T08:50:09.586Z,18.48
2023-04-18T08:52:13.789Z,19.90
2023-04-18T08:54:15.624Z,16.90
2023-04-18T08:56:17.028Z,17.67
2023-04-18T08:58:25.476Z,20.10
2023-04-18T09:00:27.488Z,17.77
2023-04-18T09:02:43.559Z,17.95
2023-04-18T09:04:48.505Z,17.60
2023-04-18T09:06:53.165Z,20.48
2023-04-18T09:08:59.130Z,20.70
2023-04-18T09:11:20.764Z,19.13
2023-04-18T09:13:39.347Z,22.48
2023-04-18T09:15:40.888Z,19.10
2023-04-18T09:17:50.681Z,19.50
2023-04-18T09:19:54.508Z,17.38
2023-04-18T09:22:00.868Z,18.25
2023-04-18T09:24:17.607Z,19.13
2023-04-18T09:26:33.848Z,17.33
2023-04-18T09:28:37.390Z,18.92
2023-04-18T09:30:40.681Z,18.75
2023-04-18T09:32:42.213Z,18.95
2023-04-18T09:34:43.681Z,19.10
2023-04-18T09:36:45.271Z,18.85
2023-04-18T09:38:48.023Z,20.70
2023-04-18T09:41:07.198Z,16.08
2023-04-18T09:43:20.433Z,19.35
2023-04-18T09:45:23.631Z,19.60
2023-04-18T09:47:26.945Z,20.95
2023-04-18T09:49:29.046Z,19.83
2023-04-18T09:51:31.733Z,19.58
2023-04-18T09:53:37.909Z,23.10
2023-04-18T09:55:40.152Z,20.02
2023-04-18T09:57:45.030Z,19.80
2023-04-18T10:00:17.656Z,19.20
2023-04-18T10:02:22.591Z,19.23
2023-04-18T10:04:24.765Z,20.17
2023-04-18T10:06:28.515Z,21.02
2023-04-18T10:08:30.366Z,21.50
2023-04-18T10:10:32.758Z,18.73
2023-04-18T10:12:35.879Z,20.52
2023-04-18T10:14:39.203Z,18.80
2023-04-18T10:16:42.271Z,20.42
2023-04-18T10:18:43.758Z,21.45
2023-04-18T10:20:46.890Z,19.27
2023-04-18T10:22:49.349Z,21.33
2023-04-18T10:24:53.882Z,18.95
2023-04-18T10:26:55.963Z,21.77
2023-04-18T10:28:58.990Z,18.13
2023-04-18T10:31:05.463Z,19.85
2023-04-18T10:33:31.022Z,20.00
2023-04-18T10:35:35.821Z,18.83
2023-04-18T10:37:58.859Z,18.67
2023-04-18T10:40:05.854Z,19.00
2023-04-18T10:44:09.127Z,19.15
2023-04-18T10:46:24.017Z,18.88
2023-04-18T10:48:32.812Z,19.02
2023-04-18T10:50:34.340Z,18.75
2023-04-18T10:52:36.080Z,17.98
2023-04-18T10:54:40.611Z,21.45
2023-04-18T10:56:52.245Z,20.95
2023-04-18T10:58:53.888Z,16.98
2023-04-18T11:00:55.432Z,19.75
2023-04-18T11:02:57.610Z,22.10
2023-04-18T11:05:00.663Z,22.58
2023-04-18T11:07:04.936Z,23.88
2023-04-18T11:09:13.869Z,18.88
2023-04-18T11:11:16.002Z,19.88
2023-04-18T11:13:17.373Z,20.35
2023-04-18T11:15:22.167Z,20.17
2023-04-18T11:17:35.672Z,21.63
2023-04-18T11:19:37.121Z,19.92
2023-04-18T11:21:38.590Z,21.02
2023-04-18T11:23:41.152Z,20.20
2023-04-18T11:25:44.723Z,17.90
2023-04-18T11:27:48.215Z,19.13
2023-04-18T11:29:53.132Z,17.63
2023-04-18T11:31:58.318Z,19.10
2023-04-18T11:34:01.973Z,17.42
2023-04-18T11:36:04.750Z,17.65
2023-04-18T11:38:07.457Z,18.25
2023-04-18T11:40:09.888Z,19.23
2023-04-18T11:42:11.511Z,20.60
2023-04-18T11:44:13.133Z,20.90
2023-04-18T11:46:14.724Z,19.83
2023-04-18T11:48:17.004Z,18.23
2023-04-18T11:50:18.454Z,22.30
2023-04-18T11:52:19.848Z,18.40
2023-04-18T11:54:44.504Z,19.45
2023-04-18T11:56:48.533Z,20.70
2023-04-18T11:58:50.023Z,19.58
2023-04-18T12:00:51.438Z,17.55
2023-04-18T12:02:53.681Z,18.35
2023-04-18T12:04:59.529Z,16.88
2023-04-18T12:07:02.513Z,17.80
2023-04-18T12:09:05.505Z,18.88
2023-04-18T12:11:07.067Z,16.73
2023-04-18T12:13:08.880Z,17.58
2023-04-18T12:15:15.093Z,18.05
2023-04-18T12:17:16.643Z,19.17
2023-04-18T12:19:20.444Z,16.98
2023-04-18T12:21:21.879Z,19.27
2023-04-18T12:23:35.570Z,17.38
2023-04-18T12:25:37.248Z,18.42
2023-04-18T12:27:48.538Z,17.90
2023-04-18T12:29:49.920Z,16.17
2023-04-18T12:31:51.563Z,14.82
2023-04-18T12:33:54.361Z,15.23
2023-04-18T12:35:56.065Z,15.30
2023-04-18T12:38:00.039Z,17.42
2023-04-18T12:40:01.468Z,17.52
2023-04-18T12:42:02.897Z,17.15
2023-04-18T12:44:04.588Z,17.08
2023-04-18T12:46:06.021Z,17.20
2023-04-18T12:48:07.576Z,15.90
2023-04-18T12:50:11.641Z,14.55
2023-04-18T12:52:13.122Z,16.10
2023-04-18T12:54:14.753Z,17.50
2023-04-18T12:56:16.271Z,18.40
2023-04-18T12:58:18.701Z,14.70
2023-04-18T13:00:23.290Z,16.65
2023-04-18T13:02:24.956Z,16.35
2023-04-18T13:04:26.724Z,16.88
2023-04-18T13:06:28.287Z,15.07
2023-04-18T13:08:29.833Z,15.18
2023-04-18T13:10:31.541Z,15.98
2023-04-18T13:12:33.026Z,15.00
2023-04-18T13:14:34.498Z,14.30
2023-04-18T13:16:36.120Z,14.23
2023-04-18T13:18:37.760Z,18.80
2023-04-18T13:20:39.142Z,15.80
2023-04-18T13:22:41.831Z,17.15
2023-04-18T13:24:43.286Z,14.25
2023-04-18T13:26:44.686Z,16.90
2023-04-18T13:28:46.451Z,14.75
2023-04-18T13:30:47.851Z,17.55
2023-04-18T13:32:49.385Z,15.02
2023-04-18T13:34:53.831Z,15.15
2023-04-18T13:36:56.712Z,17.38
2023-04-18T13:39:00.928Z,13.90
2023-04-18T13:41:12.967Z,15.60
2023-04-18T13:43:15.388Z,18.05
2023-04-18T13:45:16.890Z,15.90
2023-04-18T13:47:18.858Z,14.70
2023-04-18T13:49:20.437Z,17.40
2023-04-18T13:51:21.896Z,14.75
2023-04-18T13:53:23.315Z,14.27
2023-04-18T13:55:25.106Z,16.25
2023-04-18T13:57:26.498Z,13.93
2023-04-18T13:59:28.580Z,13.32
2023-04-18T14:01:30.026Z,14.13
2023-04-18T14:03:31.909Z,16.67
2023-04-18T14:05:34.193Z,17.10
2023-04-18T14:07:36.253Z,16.75
2023-04-18T14:09:37.757Z,16.10
2023-04-18T14:11:39.306Z,15.40
2023-04-18T14:13:40.954Z,15.98
2023-04-18T14:15:42.443Z,15.65
2023-04-18T14:17:45.690Z,15.93
2023-04-18T14:19:48.557Z,15.45
2023-04-18T14:21:49.986Z,13.90
2023-04-18T14:23:52.399Z,15.82
2023-04-18T14:25:54.111Z,14.75
2023-04-18T14:28:09.764Z,15.70
2023-04-18T14:30:11.838Z,16.30
2023-04-18T14:32:13.288Z,17.08
2023-04-18T14:34:14.690Z,16.45
2023-04-18T14:36:16.868Z,14.88
2023-04-18T14:38:18.975Z,14.40
2023-04-18T14:40:22.586Z,14.32
2023-04-18T14:42:24.015Z,13.73
2023-04-18T14:44:25.422Z,14.68
2023-04-18T14:46:28.259Z,15.98
2023-04-18T14:48:29.909Z,15.15
2023-04-18T14:50:31.591Z,14.45
2023-04-18T14:52:33.008Z,16.55
2023-04-18T14:54:34.476Z,13.98
2023-04-18T14:56:36.106Z,15.35
2023-04-18T14:58:37.580Z,15.27
2023-04-18T15:00:39.202Z,15.20
2023-04-18T15:02:41.243Z,13.63
2023-04-18T15:04:42.866Z,15.93
2023-04-18T15:06:44.364Z,15.25
2023-04-18T15:08:46.268Z,14.98
2023-04-18T15:10:47.710Z,13.63
2023-04-18T15:12:50.956Z,13.65
2023-04-18T15:14:53.771Z,14.60
2023-04-18T15:16:55.330Z,12.68
2023-04-18T15:18:56.960Z,16.05
2023-04-18T15:21:01.340Z,14.57
2023-04-18T15:23:03.140Z,14.45
2023-04-18T15:25:05.527Z,12.32
2023-04-18T15:27:07.716Z,13.15
2023-04-18T15:29:09.087Z,12.73
2023-04-18T15:31:10.912Z,11.52
2023-04-18T15:33:13.810Z,12.32
2023-04-18T15:35:15.264Z,13.77
2023-04-18T15:37:16.777Z,12.00
2023-04-18T15:39:21.828Z,12.73
2023-04-18T15:41:23.252Z,12.30
2023-04-18T15:43:24.639Z,11.95
2023-04-18T15:45:26.242Z,12.35
2023-04-18T15:47:28.078Z,10.57
2023-04-18T15:49:29.548Z,11.40
2023-04-18T15:51:31.037Z,11.20
2023-04-18T15:53:32.744Z,11.40
2023-04-18T15:55:34.279Z,11.27
2023-04-18T15:57:35.913Z,12.57
2023-04-18T15:59:37.417Z,11.93
2023-04-18T16:01:38.939Z,10.80
2023-04-18T16:03:40.902Z,11.07
2023-04-18T16:05:42.788Z,13.07
2023-04-18T16:07:44.416Z,11.95
2023-04-18T16:09:45.855Z,12.45
2023-04-18T16:11:47.319Z,11.45
2023-04-18T16:13:48.934Z,10.27
2023-04-18T16:15:50.525Z,9.60
2023-04-18T16:17:52.017Z,11.18
2023-04-18T16:19:54.195Z,10.63
2023-04-18T16:21:55.584Z,11.98
2023-04-18T16:23:57.028Z,10.68
2023-04-18T16:25:58.785Z,14.15
2023-04-18T16:28:00.446Z,13.38
2023-04-18T16:30:02.924Z,10.95
2023-04-18T16:32:06.516Z,14.95
2023-04-18T16:34:07.929Z,11.77
2023-04-18T16:36:09.480Z,13.18
2023-04-18T16:38:10.901Z,11.15
2023-04-18T16:40:12.456Z,10.32
2023-04-18T16:42:15.643Z,10.10
2023-04-18T16:44:17.401Z,10.00
2023-04-18T16:46:19.103Z,13.50
2023-04-18T16:48:20.590Z,11.75
2023-04-18T16:50:22.671Z,12.43
2023-04-18T16:52:24.438Z,12.02
2023-04-18T16:54:25.953Z,10.75
2023-04-18T16:56:27.375Z,10.90
2023-04-18T16:58:28.806Z,11.35
2023-04-18T17:00:30.179Z,12.52
2023-04-18T17:02:31.839Z,13.27
2023-04-18T17:04:33.558Z,13.82
2023-04-18T17:06:35.249Z,11.55
2023-04-18T17:08:36.694Z,12.05
2023-04-18T17:10:38.166Z,10.93
2023-04-18T17:12:39.723Z,11.90
2023-04-18T17:14:41.113Z,10.57
2023-04-18T17:16:42.627Z,11.00
2023-04-18T17:18:44.120Z,10.73
2023-04-18T17:20:45.614Z,11.10
2023-04-18T17:22:46.999Z,10.90
2023-04-18T17:24:48.425Z,11.15
2023-04-18T17:26:50.130Z,10.88
2023-04-18T17:28:51.589Z,11.38
2023-04-18T17:30:53.075Z,11.57
2023-04-18T17:32:54.590Z,11.52
2023-04-18T17:34:56.134Z,10.45
2023-04-18T17:36:57.549Z,12.27
2023-04-18T17:39:06.201Z,11.50
2023-04-18T17:41:07.788Z,10.90
2023-04-18T17:43:10.604Z,11.45
2023-04-18T17:45:12.078Z,10.77
2023-04-18T17:47:13.650Z,11.00
2023-04-18T17:49:15.191Z,12.05
2023-04-18T17:51:19.167Z,11.60
2023-04-18T17:53:20.835Z,12.50
2023-04-18T17:55:22.352Z,12.82
2023-04-18T17:57:25.972Z,12.13
2023-04-18T17:59:28.148Z,11.90
2023-04-18T18:01:30.480Z,11.82
2023-04-18T18:03:32.092Z,12.50
2023-04-18T18:05:33.586Z,13.15
2023-04-18T18:07:37.341Z,11.35
2023-04-18T18:09:39.327Z,11.35
2023-04-18T18:11:40.863Z,12.10
2023-04-18T18:13:42.369Z,12.38
2023-04-18T18:15:43.838Z,11.80
2023-04-18T18:17:47.544Z,12.02
2023-04-18T18:19:49.032Z,12.20
2023-04-18T18:21:50.538Z,10.77
2023-04-18T18:23:51.958Z,12.73
2023-04-18T18:25:53.520Z,12.40
2023-04-18T18:27:54.952Z,12.07
2023-04-18T18:29:57.274Z,12.57
2023-04-18T18:31:58.677Z,13.65
2023-04-18T18:34:00.260Z,12.43
2023-04-18T18:36:01.748Z,12.35
2023-04-18T18:38:03.247Z,12.68
2023-04-18T18:40:05.201Z,11.77
2023-04-18T18:42:06.690Z,11.88
2023-04-18T18:44:08.126Z,13.07
2023-04-18T18:46:09.649Z,12.43
2023-04-18T18:48:11.505Z,13.55
2023-04-18T18:50:13.165Z,14.27
2023-04-18T18:52:14.712Z,14.48
2023-04-18T18:54:16.285Z,13.05
2023-04-18T18:56:18.113Z,13.05
2023-04-18T18:58:19.608Z,15.73
2023-04-18T19:00:21.197Z,13.05
2023-04-18T19:02:23.155Z,13.73
2023-04-18T19:04:24.843Z,13.95
2023-04-18T19:06:27.506Z,13.38
2023-04-18T19:08:29.137Z,12.45
2023-04-18T19:10:30.825Z,14.25
2023-04-18T19:12:32.283Z,14.98
2023-04-18T19:14:34.948Z,13.57
2023-04-18T19:16:36.478Z,13.30
2023-04-18T19:18:38.194Z,13.38
2023-04-18T19:20:41.593Z,13.10
2023-04-18T19:22:42.983Z,13.18
2023-04-18T19:24:44.433Z,12.85
2023-04-18T19:26:45.824Z,13.88
2023-04-18T19:28:47.322Z,13.90
2023-04-18T19:30:49.159Z,14.02
2023-04-18T19:32:50.968Z,13.75
2023-04-18T19:34:52.470Z,13.23
2023-04-18T19:36:53.878Z,13.27
2023-04-18T19:38:55.342Z,15.07
2023-04-18T19:40:56.994Z,13.50
2023-04-18T19:42:58.396Z,12.40
2023-04-18T19:45:00.266Z,13.60
2023-04-18T19:47:01.744Z,12.75
2023-04-18T19:49:03.432Z,15.40
2023-04-18T19:51:04.959Z,13.75
2023-04-18T19:53:06.667Z,13.95
2023-04-18T19:55:08.595Z,13.48
2023-04-18T19:57:10.477Z,14.55
2023-04-18T19:59:12.536Z,12.93
2023-04-18T20:01:15.643Z,13.25
2023-04-18T20:03:17.314Z,13.48
2023-04-18T20:05:19.088Z,14.55
2023-04-18T20:07:20.599Z,12.90
2023-04-18T20:09:22.050Z,14.85
2023-04-18T20:11:24.391Z,16.25
2023-04-18T20:13:25.804Z,14.00
2023-04-18T20:17:32.733Z,14.82
2023-04-18T20:19:34.208Z,14.30
2023-04-18T20:21:35.666Z,15.60
2023-04-18T20:23:37.353Z,14.85
2023-04-18T20:25:38.827Z,15.73
2023-04-18T20:27:40.278Z,14.00
2023-04-18T20:29:42.014Z,16.75
2023-04-18T20:31:43.427Z,14.23
2023-04-18T20:33:44.857Z,14.35
2023-04-18T20:35:46.818Z,13.25
2023-04-18T20:37:49.733Z,16.98
2023-04-18T20:39:56.472Z,14.10
2023-04-18T20:41:59.799Z,16.05
2023-04-18T20:44:05.019Z,15.27
2023-04-18T20:46:07.325Z,16.02
2023-04-18T20:48:09.707Z,14.82
2023-04-18T20:50:11.235Z,16.63
2023-04-18T20:52:14.430Z,14.00
2023-04-18T20:54:16.239Z,15.20
2023-04-18T20:56:17.827Z,17.00
2023-04-18T20:58:19.326Z,15.05
2023-04-18T21:00:20.943Z,15.82
2023-04-18T21:02:22.529Z,14.27
2023-04-18T21:04:24.912Z,15.55
2023-04-18T21:06:28.247Z,15.15
2023-04-18T21:08:29.770Z,14.52
2023-04-18T21:10:31.256Z,14.23
2023-04-18T21:12:32.632Z,16.40
2023-04-18T21:14:34.106Z,14.73
2023-04-18T21:16:36.735Z,14.93
2023-04-18T21:18:38.226Z,14.75
2023-04-18T21:20:39.630Z,14.57
2023-04-18T21:22:41.062Z,16.63
2023-04-18T21:24:43.466Z,14.32
2023-04-18T21:26:45.791Z,15.43
2023-04-18T21:28:57.364Z,14.38
2023-04-18T21:30:58.743Z,14.30
2023-04-18T21:33:00.341Z,15.18
2023-04-18T21:35:02.420Z,15.65
2023-04-18T21:37:03.921Z,15.95
2023-04-18T21:39:05.449Z,14.30
2023-04-18T21:41:07.092Z,15.15
2023-04-18T21:43:08.662Z,14.30
2023-04-18T21:45:10.940Z,14.63
2023-04-18T21:47:12.334Z,15.77
2023-04-18T21:49:13.791Z,15.57
2023-04-18T21:53:22.645Z,15.27
2023-04-18T21:55:24.056Z,15.20
2023-04-18T21:57:25.447Z,15.88
2023-04-18T21:59:26.844Z,15.98
2023-04-18T22:01:28.295Z,15.48
2023-04-18T22:03:31.407Z,15.82
2023-04-18T22:05:33.504Z,16.30
2023-04-18T22:07:40.835Z,16.30
2023-04-18T22:09:51.795Z,16.00
2023-04-18T22:11:56.851Z,15.13
2023-04-18T22:14:00.403Z,17.92
2023-04-18T22:16:03.039Z,19.10
2023-04-18T22:18:08.398Z,16.27
2023-04-18T22:20:11.147Z,16.23
2023-04-18T22:22:12.554Z,16.95
2023-04-18T22:24:14.378Z,15.55
2023-04-18T22:26:16.000Z,14.50
2023-04-18T22:28:17.375Z,16.33
2023-04-18T22:30:24.602Z,15.63
2023-04-18T22:32:26.002Z,16.83
2023-04-18T22:34:27.408Z,15.32
2023-04-18T22:36:28.798Z,16.10
2023-04-18T22:38:30.250Z,15.95
2023-04-18T22:40:31.676Z,15.95
2023-04-18T22:42:33.735Z,16.45
2023-04-18T22:44:35.319Z,16.00
2023-04-18T22:46:38.578Z,16.77
2023-04-18T22:48:40.392Z,15.02
2023-04-18T22:50:46.145Z,14.98
2023-04-18T22:52:47.871Z,19.30
2023-04-18T22:54:49.299Z,15.75
2023-04-18T22:56:50.808Z,16.60
2023-04-18T22:58:52.215Z,16.83
2023-04-18T23:00:53.698Z,16.92
2023-04-18T23:02:55.433Z,15.60
2023-04-18T23:04:58.921Z,17.48
2023-04-18T23:07:00.325Z,17.95
2023-04-18T23:09:02.928Z,17.95
2023-04-18T23:11:04.324Z,18.88
2023-04-18T23:13:05.823Z,16.58
2023-04-18T23:15:07.932Z,17.40
2023-04-18T23:17:09.312Z,16.92
2023-04-18T23:19:10.762Z,16.42
2023-04-18T23:21:12.425Z,18.27
2023-04-18T23:23:13.791Z,19.77
2023-04-18T23:25:15.220Z,19.80
2023-04-18T23:27:16.652Z,17.48
2023-04-18T23:29:18.228Z,17.48
2023-04-18T23:31:19.829Z,19.30
2023-04-18T23:33:21.314Z,19.10
2023-04-18T23:35:22.736Z,20.45
2023-04-18T23:37:24.157Z,19.08
2023-04-18T23:39:26.468Z,19.83
2023-04-18T23:41:27.893Z,17.90
2023-04-18T23:43:29.354Z,20.65
2023-04-18T23:45:30.982Z,21.15
2023-04-18T23:47:32.466Z,21.15
2023-04-18T23:49:34.118Z,21.35
2023-04-18T23:51:35.526Z,19.67
2023-04-18T23:53:36.901Z,21.63
2023-04-18T23:55:38.427Z,19.15
2023-04-18T23:57:39.802Z,22.92
2023-04-18T23:59:41.236Z,23.33
